sensor_id;sensor_type;location;lat;lon;timestamp;P1;durP1;ratioP1;P2;durP2;ratioP2
68944;SDS011;55984;48.790;8.990;2023-05-10T00:02:16;2.80;;;1.50;;
68944;SDS011;55984;48.790;8.990;2023-05-10T00:04:42;3.83;;;1.70;;
68944;SDS011;55984;48.790;8.990;2023-05-10T00:07:07;4.00;;;1.80;;
68944;SDS011;55984;48.790;8.990;2023-05-10T00:09:33;2.37;;;1.53;;
68944;SDS011;55984;48.790;8.990;2023-05-10T00:11:59;2.20;;;1.40;;
68944;SDS011;55984;48.790;8.990;2023-05-10T00:14:25;2.20;;;1.40;;
68944;SDS011;55984;48.790;8.990;2023-05-10T00:16:51;2.20;;;1.40;;
68944;SDS011;55984;48.790;8.990;2023-05-10T00:19:16;2.10;;;1.30;;
68944;SDS011;55984;48.790;8.990;2023-05-10T00:21:42;2.37;;;1.30;;
68944;SDS011;55984;48.790;8.990;2023-05-10T00:24:08;2.20;;;1.30;;
68944;SDS011;55984;48.790;8.990;2023-05-10T00:26:34;4.47;;;1.50;;
68944;SDS011;55984;48.790;8.990;2023-05-10T00:29:00;16.83;;;1.50;;
68944;SDS011;55984;48.790;8.990;2023-05-10T00:31:26;3.20;;;1.30;;
68944;SDS011;55984;48.790;8.990;2023-05-10T00:33:51;4.23;;;1.50;;
68944;SDS011;55984;48.790;8.990;2023-05-10T00:36:17;4.97;;;1.70;;
68944;SDS011;55984;48.790;8.990;2023-05-10T00:38:43;2.27;;;1.50;;
68944;SDS011;55984;48.790;8.990;2023-05-10T00:41:09;2.20;;;1.23;;
68944;SDS011;55984;48.790;8.990;2023-05-10T00:43:35;3.23;;;1.37;;
68944;SDS011;55984;48.790;8.990;2023-05-10T00:46:01;2.40;;;1.40;;
68944;SDS011;55984;48.790;8.990;2023-05-10T00:48:27;4.93;;;1.30;;
68944;SDS011;55984;48.790;8.990;2023-05-10T00:50:54;2.40;;;1.33;;
68944;SDS011;55984;48.790;8.990;2023-05-10T00:53:20;5.20;;;1.40;;
68944;SDS011;55984;48.790;8.990;2023-05-10T00:55:47;4.10;;;1.40;;
68944;SDS011;55984;48.790;8.990;2023-05-10T00:58:12;6.63;;;1.60;;
68944;SDS011;55984;48.790;8.990;2023-05-10T01:00:38;4.13;;;1.20;;
68944;SDS011;55984;48.790;8.990;2023-05-10T01:03:11;2.40;;;1.23;;
68944;SDS011;55984;48.790;8.990;2023-05-10T01:05:37;2.00;;;1.20;;
68944;SDS011;55984;48.790;8.990;2023-05-10T01:08:03;5.60;;;1.50;;
68944;SDS011;55984;48.790;8.990;2023-05-10T01:10:30;2.53;;;1.53;;
68944;SDS011;55984;48.790;8.990;2023-05-10T01:12:56;3.07;;;1.60;;
68944;SDS011;55984;48.790;8.990;2023-05-10T01:15:23;3.27;;;1.57;;
68944;SDS011;55984;48.790;8.990;2023-05-10T01:17:49;5.23;;;1.50;;
68944;SDS011;55984;48.790;8.990;2023-05-10T01:20:15;2.43;;;1.50;;
68944;SDS011;55984;48.790;8.990;2023-05-10T01:34:28;5.40;;;1.70;;
68944;SDS011;55984;48.790;8.990;2023-05-10T01:37:10;2.63;;;1.63;;
68944;SDS011;55984;48.790;8.990;2023-05-10T01:42:11;3.97;;;1.77;;
68944;SDS011;55984;48.790;8.990;2023-05-10T01:47:44;4.73;;;1.80;;
68944;SDS011;55984;48.790;8.990;2023-05-10T01:50:19;3.00;;;1.70;;
68944;SDS011;55984;48.790;8.990;2023-05-10T01:52:51;3.70;;;2.00;;
68944;SDS011;55984;48.790;8.990;2023-05-10T01:55:20;4.17;;;1.80;;
68944;SDS011;55984;48.790;8.990;2023-05-10T01:57:50;4.00;;;1.77;;
68944;SDS011;55984;48.790;8.990;2023-05-10T02:00:22;4.97;;;2.03;;
68944;SDS011;55984;48.790;8.990;2023-05-10T02:02:49;2.70;;;1.70;;
68944;SDS011;55984;48.790;8.990;2023-05-10T02:05:16;2.90;;;1.80;;
68944;SDS011;55984;48.790;8.990;2023-05-10T02:07:44;4.57;;;2.00;;
68944;SDS011;55984;48.790;8.990;2023-05-10T02:10:10;3.10;;;2.03;;
68944;SDS011;55984;48.790;8.990;2023-05-10T02:12:39;3.07;;;1.83;;
68944;SDS011;55984;48.790;8.990;2023-05-10T02:15:15;2.93;;;1.80;;
68944;SDS011;55984;48.790;8.990;2023-05-10T02:17:46;3.20;;;2.10;;
68944;SDS011;55984;48.790;8.990;2023-05-10T02:20:13;3.60;;;2.07;;
68944;SDS011;55984;48.790;8.990;2023-05-10T02:22:41;7.43;;;2.20;;
68944;SDS011;55984;48.790;8.990;2023-05-10T02:25:08;3.93;;;2.50;;
68944;SDS011;55984;48.790;8.990;2023-05-10T02:27:38;3.23;;;2.10;;
68944;SDS011;55984;48.790;8.990;2023-05-10T02:30:07;3.60;;;2.40;;
68944;SDS011;55984;48.790;8.990;2023-05-10T02:32:33;4.40;;;2.70;;
68944;SDS011;55984;48.790;8.990;2023-05-10T02:35:01;5.17;;;2.73;;
68944;SDS011;55984;48.790;8.990;2023-05-10T02:37:28;4.93;;;2.57;;
68944;SDS011;55984;48.790;8.990;2023-05-10T02:39:55;3.67;;;2.37;;
68944;SDS011;55984;48.790;8.990;2023-05-10T02:42:23;5.70;;;2.63;;
68944;SDS011;55984;48.790;8.990;2023-05-10T02:44:59;4.50;;;2.40;;
68944;SDS011;55984;48.790;8.990;2023-05-10T02:47:27;7.50;;;2.77;;
68944;SDS011;55984;48.790;8.990;2023-05-10T02:49:53;4.70;;;2.73;;
68944;SDS011;55984;48.790;8.990;2023-05-10T02:52:23;4.87;;;2.60;;
68944;SDS011;55984;48.790;8.990;2023-05-10T02:54:55;5.63;;;2.63;;
68944;SDS011;55984;48.790;8.990;2023-05-10T02:57:33;4.20;;;2.80;;
68944;SDS011;55984;48.790;8.990;2023-05-10T03:00:00;7.87;;;3.13;;
68944;SDS011;55984;48.790;8.990;2023-05-10T03:02:31;6.60;;;3.00;;
68944;SDS011;55984;48.790;8.990;2023-05-10T03:04:57;4.93;;;3.13;;
68944;SDS011;55984;48.790;8.990;2023-05-10T03:07:22;10.03;;;3.10;;
68944;SDS011;55984;48.790;8.990;2023-05-10T03:09:49;6.90;;;3.50;;
68944;SDS011;55984;48.790;8.990;2023-05-10T03:12:19;5.00;;;2.80;;
68944;SDS011;55984;48.790;8.990;2023-05-10T03:15:03;5.57;;;3.03;;
68944;SDS011;55984;48.790;8.990;2023-05-10T03:17:40;4.80;;;3.13;;
68944;SDS011;55984;48.790;8.990;2023-05-10T03:23:19;5.70;;;3.10;;
68944;SDS011;55984;48.790;8.990;2023-05-10T03:25:48;9.30;;;4.63;;
68944;SDS011;55984;48.790;8.990;2023-05-10T03:28:15;10.80;;;3.60;;
68944;SDS011;55984;48.790;8.990;2023-05-10T03:30:43;6.20;;;3.60;;
68944;SDS011;55984;48.790;8.990;2023-05-10T03:33:10;6.87;;;3.83;;
68944;SDS011;55984;48.790;8.990;2023-05-10T03:35:37;4.93;;;3.00;;
68944;SDS011;55984;48.790;8.990;2023-05-10T03:38:03;6.63;;;3.30;;
68944;SDS011;55984;48.790;8.990;2023-05-10T03:40:29;4.30;;;2.80;;
68944;SDS011;55984;48.790;8.990;2023-05-10T03:42:57;10.67;;;3.83;;
68944;SDS011;55984;48.790;8.990;2023-05-10T03:45:23;5.80;;;3.30;;
68944;SDS011;55984;48.790;8.990;2023-05-10T03:47:49;8.90;;;3.47;;
68944;SDS011;55984;48.790;8.990;2023-05-10T03:50:16;7.87;;;3.60;;
68944;SDS011;55984;48.790;8.990;2023-05-10T03:52:43;6.20;;;3.30;;
68944;SDS011;55984;48.790;8.990;2023-05-10T03:55:09;9.67;;;3.47;;
68944;SDS011;55984;48.790;8.990;2023-05-10T03:57:35;5.53;;;3.20;;
68944;SDS011;55984;48.790;8.990;2023-05-10T04:00:02;6.00;;;3.40;;
68944;SDS011;55984;48.790;8.990;2023-05-10T04:02:28;5.40;;;3.00;;
68944;SDS011;55984;48.790;8.990;2023-05-10T04:04:55;9.07;;;3.60;;
68944;SDS011;55984;48.790;8.990;2023-05-10T04:07:21;6.63;;;3.10;;
68944;SDS011;55984;48.790;8.990;2023-05-10T04:09:47;7.30;;;3.17;;
68944;SDS011;55984;48.790;8.990;2023-05-10T04:12:13;8.80;;;3.30;;
68944;SDS011;55984;48.790;8.990;2023-05-10T04:14:39;4.73;;;2.80;;
68944;SDS011;55984;48.790;8.990;2023-05-10T04:17:04;5.60;;;3.27;;
68944;SDS011;55984;48.790;8.990;2023-05-10T04:19:31;5.87;;;3.13;;
68944;SDS011;55984;48.790;8.990;2023-05-10T04:21:57;4.43;;;2.77;;
68944;SDS011;55984;48.790;8.990;2023-05-10T04:24:23;5.70;;;2.80;;
68944;SDS011;55984;48.790;8.990;2023-05-10T04:26:49;7.00;;;2.97;;
68944;SDS011;55984;48.790;8.990;2023-05-10T04:29:16;5.53;;;3.27;;
68944;SDS011;55984;48.790;8.990;2023-05-10T04:31:42;6.23;;;2.97;;
68944;SDS011;55984;48.790;8.990;2023-05-10T04:34:08;7.10;;;2.60;;
68944;SDS011;55984;48.790;8.990;2023-05-10T04:36:34;8.47;;;3.00;;
68944;SDS011;55984;48.790;8.990;2023-05-10T04:39:02;5.20;;;2.97;;
68944;SDS011;55984;48.790;8.990;2023-05-10T04:41:28;6.53;;;3.03;;
68944;SDS011;55984;48.790;8.990;2023-05-10T04:43:54;4.13;;;2.77;;
68944;SDS011;55984;48.790;8.990;2023-05-10T04:46:21;4.70;;;3.00;;
68944;SDS011;55984;48.790;8.990;2023-05-10T04:48:48;5.13;;;3.13;;
68944;SDS011;55984;48.790;8.990;2023-05-10T04:51:14;6.07;;;2.90;;
68944;SDS011;55984;48.790;8.990;2023-05-10T04:53:40;6.80;;;2.80;;
68944;SDS011;55984;48.790;8.990;2023-05-10T04:56:06;11.03;;;2.93;;
68944;SDS011;55984;48.790;8.990;2023-05-10T04:58:32;6.00;;;3.03;;
68944;SDS011;55984;48.790;8.990;2023-05-10T05:01:04;7.17;;;2.90;;
68944;SDS011;55984;48.790;8.990;2023-05-10T05:03:33;5.97;;;3.13;;
68944;SDS011;55984;48.790;8.990;2023-05-10T05:06:04;6.90;;;3.43;;
68944;SDS011;55984;48.790;8.990;2023-05-10T05:08:30;4.87;;;3.03;;
68944;SDS011;55984;48.790;8.990;2023-05-10T05:10:56;6.40;;;2.97;;
68944;SDS011;55984;48.790;8.990;2023-05-10T05:13:24;5.00;;;3.10;;
68944;SDS011;55984;48.790;8.990;2023-05-10T05:15:51;4.10;;;2.70;;
68944;SDS011;55984;48.790;8.990;2023-05-10T05:18:17;5.10;;;2.97;;
68944;SDS011;55984;48.790;8.990;2023-05-10T05:20:45;5.20;;;3.00;;
68944;SDS011;55984;48.790;8.990;2023-05-10T05:23:11;4.87;;;3.00;;
68944;SDS011;55984;48.790;8.990;2023-05-10T05:25:37;6.63;;;2.80;;
68944;SDS011;55984;48.790;8.990;2023-05-10T05:28:03;4.23;;;3.00;;
68944;SDS011;55984;48.790;8.990;2023-05-10T05:30:29;6.73;;;3.00;;
68944;SDS011;55984;48.790;8.990;2023-05-10T05:32:54;5.83;;;2.93;;
68944;SDS011;55984;48.790;8.990;2023-05-10T05:35:21;5.60;;;3.10;;
68944;SDS011;55984;48.790;8.990;2023-05-10T05:37:50;5.07;;;2.87;;
68944;SDS011;55984;48.790;8.990;2023-05-10T05:40:16;5.03;;;3.10;;
68944;SDS011;55984;48.790;8.990;2023-05-10T05:42:42;5.63;;;3.30;;
68944;SDS011;55984;48.790;8.990;2023-05-10T05:45:08;5.50;;;3.20;;
68944;SDS011;55984;48.790;8.990;2023-05-10T05:47:37;6.90;;;3.63;;
68944;SDS011;55984;48.790;8.990;2023-05-10T05:50:04;4.80;;;2.90;;
68944;SDS011;55984;48.790;8.990;2023-05-10T05:52:30;5.80;;;3.00;;
68944;SDS011;55984;48.790;8.990;2023-05-10T05:54:56;6.10;;;2.93;;
68944;SDS011;55984;48.790;8.990;2023-05-10T05:57:25;4.90;;;3.30;;
68944;SDS011;55984;48.790;8.990;2023-05-10T05:59:51;4.20;;;2.60;;
68944;SDS011;55984;48.790;8.990;2023-05-10T06:02:17;4.23;;;2.77;;
68944;SDS011;55984;48.790;8.990;2023-05-10T06:04:43;4.20;;;2.73;;
68944;SDS011;55984;48.790;8.990;2023-05-10T06:07:09;5.10;;;2.83;;
68944;SDS011;55984;48.790;8.990;2023-05-10T06:09:35;5.37;;;2.80;;
68944;SDS011;55984;48.790;8.990;2023-05-10T06:12:00;8.17;;;3.10;;
68944;SDS011;55984;48.790;8.990;2023-05-10T06:14:26;6.80;;;2.77;;
68944;SDS011;55984;48.790;8.990;2023-05-10T06:16:52;6.17;;;3.30;;
68944;SDS011;55984;48.790;8.990;2023-05-10T06:19:18;5.43;;;3.50;;
68944;SDS011;55984;48.790;8.990;2023-05-10T06:21:44;5.00;;;3.07;;
68944;SDS011;55984;48.790;8.990;2023-05-10T06:24:10;6.30;;;3.03;;
68944;SDS011;55984;48.790;8.990;2023-05-10T06:26:36;5.63;;;3.40;;
68944;SDS011;55984;48.790;8.990;2023-05-10T06:29:02;6.87;;;4.00;;
68944;SDS011;55984;48.790;8.990;2023-05-10T06:31:28;5.60;;;3.27;;
68944;SDS011;55984;48.790;8.990;2023-05-10T06:33:53;4.90;;;3.30;;
68944;SDS011;55984;48.790;8.990;2023-05-10T06:36:19;27.17;;;13.73;;
68944;SDS011;55984;48.790;8.990;2023-05-10T06:38:45;10.17;;;4.80;;
68944;SDS011;55984;48.790;8.990;2023-05-10T06:41:11;6.27;;;3.33;;
68944;SDS011;55984;48.790;8.990;2023-05-10T06:43:37;16.80;;;8.10;;
68944;SDS011;55984;48.790;8.990;2023-05-10T06:46:06;10.13;;;3.73;;
68944;SDS011;55984;48.790;8.990;2023-05-10T06:48:32;7.80;;;3.00;;
68944;SDS011;55984;48.790;8.990;2023-05-10T06:50:58;4.43;;;3.10;;
68944;SDS011;55984;48.790;8.990;2023-05-10T06:53:24;5.53;;;3.20;;
68944;SDS011;55984;48.790;8.990;2023-05-10T06:55:49;5.63;;;3.00;;
68944;SDS011;55984;48.790;8.990;2023-05-10T06:58:15;7.83;;;3.30;;
68944;SDS011;55984;48.790;8.990;2023-05-10T07:00:41;7.53;;;3.30;;
68944;SDS011;55984;48.790;8.990;2023-05-10T07:03:09;5.27;;;2.80;;
68944;SDS011;55984;48.790;8.990;2023-05-10T07:05:35;6.83;;;3.40;;
68944;SDS011;55984;48.790;8.990;2023-05-10T07:08:01;4.80;;;2.97;;
68944;SDS011;55984;48.790;8.990;2023-05-10T07:10:27;4.87;;;3.00;;
68944;SDS011;55984;48.790;8.990;2023-05-10T07:12:53;6.90;;;3.27;;
68944;SDS011;55984;48.790;8.990;2023-05-10T07:15:22;6.83;;;2.83;;
68944;SDS011;55984;48.790;8.990;2023-05-10T07:17:48;9.60;;;2.90;;
68944;SDS011;55984;48.790;8.990;2023-05-10T07:20:14;4.00;;;2.73;;
68944;SDS011;55984;48.790;8.990;2023-05-10T07:22:40;6.33;;;2.67;;
68944;SDS011;55984;48.790;8.990;2023-05-10T07:25:06;4.17;;;2.70;;
68944;SDS011;55984;48.790;8.990;2023-05-10T07:27:32;4.93;;;2.73;;
68944;SDS011;55984;48.790;8.990;2023-05-10T07:29:58;5.30;;;2.47;;
68944;SDS011;55984;48.790;8.990;2023-05-10T07:32:25;3.90;;;2.40;;
68944;SDS011;55984;48.790;8.990;2023-05-10T07:34:51;10.13;;;3.33;;
68944;SDS011;55984;48.790;8.990;2023-05-10T07:37:17;6.17;;;2.30;;
68944;SDS011;55984;48.790;8.990;2023-05-10T07:39:43;3.60;;;2.10;;
68944;SDS011;55984;48.790;8.990;2023-05-10T07:42:09;3.90;;;2.33;;
68944;SDS011;55984;48.790;8.990;2023-05-10T07:44:35;4.50;;;2.03;;
68944;SDS011;55984;48.790;8.990;2023-05-10T07:47:01;4.60;;;2.10;;
68944;SDS011;55984;48.790;8.990;2023-05-10T07:49:27;3.70;;;2.13;;
68944;SDS011;55984;48.790;8.990;2023-05-10T07:51:53;5.80;;;2.10;;
68944;SDS011;55984;48.790;8.990;2023-05-10T07:54:19;2.50;;;1.67;;
68944;SDS011;55984;48.790;8.990;2023-05-10T07:56:46;5.93;;;1.63;;
68944;SDS011;55984;48.790;8.990;2023-05-10T07:59:16;2.40;;;1.60;;
68944;SDS011;55984;48.790;8.990;2023-05-10T08:01:43;2.77;;;1.93;;
68944;SDS011;55984;48.790;8.990;2023-05-10T08:04:09;2.43;;;1.70;;
68944;SDS011;55984;48.790;8.990;2023-05-10T08:06:36;2.70;;;1.80;;
68944;SDS011;55984;48.790;8.990;2023-05-10T08:09:02;2.93;;;1.70;;
68944;SDS011;55984;48.790;8.990;2023-05-10T08:11:29;2.73;;;1.67;;
68944;SDS011;55984;48.790;8.990;2023-05-10T08:14:01;8.53;;;1.67;;
68944;SDS011;55984;48.790;8.990;2023-05-10T08:16:30;4.27;;;1.40;;
68944;SDS011;55984;48.790;8.990;2023-05-10T08:18:57;3.97;;;1.87;;
68944;SDS011;55984;48.790;8.990;2023-05-10T08:21:23;6.47;;;1.87;;
68944;SDS011;55984;48.790;8.990;2023-05-10T08:23:49;3.20;;;1.70;;
68944;SDS011;55984;48.790;8.990;2023-05-10T08:26:15;3.93;;;1.60;;
68944;SDS011;55984;48.790;8.990;2023-05-10T08:28:41;3.30;;;1.60;;
68944;SDS011;55984;48.790;8.990;2023-05-10T08:31:06;5.20;;;1.63;;
68944;SDS011;55984;48.790;8.990;2023-05-10T08:33:32;3.97;;;1.37;;
68944;SDS011;55984;48.790;8.990;2023-05-10T08:35:58;3.47;;;1.60;;
68944;SDS011;55984;48.790;8.990;2023-05-10T08:38:24;3.70;;;1.50;;
68944;SDS011;55984;48.790;8.990;2023-05-10T08:40:50;6.70;;;1.73;;
68944;SDS011;55984;48.790;8.990;2023-05-10T08:43:21;5.17;;;1.63;;
68944;SDS011;55984;48.790;8.990;2023-05-10T08:45:55;5.40;;;1.80;;
68944;SDS011;55984;48.790;8.990;2023-05-10T08:48:22;5.43;;;1.60;;
68944;SDS011;55984;48.790;8.990;2023-05-10T08:50:50;3.30;;;1.60;;
68944;SDS011;55984;48.790;8.990;2023-05-10T08:53:19;3.83;;;1.60;;
68944;SDS011;55984;48.790;8.990;2023-05-10T08:55:46;4.43;;;1.50;;
68944;SDS011;55984;48.790;8.990;2023-05-10T08:58:13;2.87;;;1.40;;
68944;SDS011;55984;48.790;8.990;2023-05-10T09:00:39;2.40;;;1.40;;
68944;SDS011;55984;48.790;8.990;2023-05-10T09:03:05;3.27;;;1.40;;
68944;SDS011;55984;48.790;8.990;2023-05-10T09:05:32;3.60;;;1.30;;
68944;SDS011;55984;48.790;8.990;2023-05-10T09:07:58;2.30;;;1.37;;
68944;SDS011;55984;48.790;8.990;2023-05-10T09:10:25;2.77;;;1.50;;
68944;SDS011;55984;48.790;8.990;2023-05-10T09:12:53;2.27;;;1.43;;
68944;SDS011;55984;48.790;8.990;2023-05-10T09:15:21;4.20;;;1.50;;
68944;SDS011;55984;48.790;8.990;2023-05-10T09:17:47;3.40;;;1.50;;
68944;SDS011;55984;48.790;8.990;2023-05-10T09:20:15;2.20;;;1.40;;
68944;SDS011;55984;48.790;8.990;2023-05-10T09:22:42;4.93;;;1.50;;
68944;SDS011;55984;48.790;8.990;2023-05-10T09:27:39;2.20;;;1.50;;
68944;SDS011;55984;48.790;8.990;2023-05-10T09:30:10;2.40;;;1.60;;
68944;SDS011;55984;48.790;8.990;2023-05-10T09:32:44;9.37;;;1.60;;
68944;SDS011;55984;48.790;8.990;2023-05-10T09:35:14;6.90;;;1.47;;
68944;SDS011;55984;48.790;8.990;2023-05-10T09:37:42;4.67;;;1.43;;
68944;SDS011;55984;48.790;8.990;2023-05-10T09:40:11;3.30;;;1.50;;
68944;SDS011;55984;48.790;8.990;2023-05-10T09:42:52;4.53;;;1.40;;
68944;SDS011;55984;48.790;8.990;2023-05-10T09:45:19;2.87;;;1.57;;
68944;SDS011;55984;48.790;8.990;2023-05-10T09:47:46;3.40;;;1.60;;
68944;SDS011;55984;48.790;8.990;2023-05-10T09:50:13;5.50;;;1.50;;
68944;SDS011;55984;48.790;8.990;2023-05-10T09:58:09;3.90;;;1.63;;
68944;SDS011;55984;48.790;8.990;2023-05-10T10:00:39;3.50;;;1.40;;
68944;SDS011;55984;48.790;8.990;2023-05-10T10:03:11;7.20;;;1.40;;
68944;SDS011;55984;48.790;8.990;2023-05-10T10:05:39;3.37;;;1.50;;
68944;SDS011;55984;48.790;8.990;2023-05-10T10:08:07;8.80;;;1.93;;
68944;SDS011;55984;48.790;8.990;2023-05-10T10:10:34;7.20;;;1.50;;
68944;SDS011;55984;48.790;8.990;2023-05-10T10:13:00;5.20;;;1.50;;
68944;SDS011;55984;48.790;8.990;2023-05-10T10:15:29;3.07;;;1.40;;
68944;SDS011;55984;48.790;8.990;2023-05-10T10:17:56;2.47;;;1.53;;
68944;SDS011;55984;48.790;8.990;2023-05-10T10:20:22;5.60;;;1.60;;
68944;SDS011;55984;48.790;8.990;2023-05-10T10:22:50;2.60;;;1.67;;
68944;SDS011;55984;48.790;8.990;2023-05-10T10:25:16;2.50;;;1.60;;
68944;SDS011;55984;48.790;8.990;2023-05-10T10:35:57;2.50;;;1.50;;
68944;SDS011;55984;48.790;8.990;2023-05-10T10:38:53;3.97;;;1.77;;
68944;SDS011;55984;48.790;8.990;2023-05-10T10:41:33;3.20;;;1.40;;
68944;SDS011;55984;48.790;8.990;2023-05-10T10:52:20;3.10;;;1.87;;
68944;SDS011;55984;48.790;8.990;2023-05-10T10:55:03;3.20;;;1.63;;
68944;SDS011;55984;48.790;8.990;2023-05-10T10:57:43;3.77;;;1.47;;
68944;SDS011;55984;48.790;8.990;2023-05-10T11:00:18;5.80;;;1.70;;
68944;SDS011;55984;48.790;8.990;2023-05-10T11:02:46;3.37;;;1.50;;
68944;SDS011;55984;48.790;8.990;2023-05-10T11:07:55;3.20;;;1.70;;
68944;SDS011;55984;48.790;8.990;2023-05-10T11:10:23;2.70;;;1.70;;
68944;SDS011;55984;48.790;8.990;2023-05-10T11:12:51;7.27;;;2.10;;
68944;SDS011;55984;48.790;8.990;2023-05-10T11:15:19;2.80;;;1.50;;
68944;SDS011;55984;48.790;8.990;2023-05-10T11:17:45;5.37;;;1.60;;
68944;SDS011;55984;48.790;8.990;2023-05-10T11:20:16;2.80;;;2.00;;
68944;SDS011;55984;48.790;8.990;2023-05-10T11:22:54;7.63;;;1.50;;
68944;SDS011;55984;48.790;8.990;2023-05-10T11:25:26;4.40;;;1.60;;
68944;SDS011;55984;48.790;8.990;2023-05-10T11:27:53;4.83;;;1.70;;
68944;SDS011;55984;48.790;8.990;2023-05-10T11:30:19;3.57;;;1.77;;
68944;SDS011;55984;48.790;8.990;2023-05-10T11:32:47;4.30;;;1.60;;
68944;SDS011;55984;48.790;8.990;2023-05-10T11:35:13;2.87;;;1.70;;
68944;SDS011;55984;48.790;8.990;2023-05-10T11:37:41;3.43;;;1.73;;
68944;SDS011;55984;48.790;8.990;2023-05-10T11:40:17;2.83;;;1.77;;
68944;SDS011;55984;48.790;8.990;2023-05-10T11:42:43;5.70;;;1.80;;
68944;SDS011;55984;48.790;8.990;2023-05-10T11:45:09;4.03;;;1.87;;
68944;SDS011;55984;48.790;8.990;2023-05-10T11:47:35;5.20;;;1.93;;
68944;SDS011;55984;48.790;8.990;2023-05-10T11:50:02;9.90;;;2.67;;
68944;SDS011;55984;48.790;8.990;2023-05-10T11:52:28;8.43;;;1.80;;
68944;SDS011;55984;48.790;8.990;2023-05-10T11:54:54;6.63;;;2.00;;
68944;SDS011;55984;48.790;8.990;2023-05-10T11:57:20;5.47;;;2.10;;
68944;SDS011;55984;48.790;8.990;2023-05-10T11:59:54;3.40;;;1.87;;
68944;SDS011;55984;48.790;8.990;2023-05-10T12:02:21;3.63;;;2.17;;
68944;SDS011;55984;48.790;8.990;2023-05-10T12:04:48;6.43;;;1.97;;
68944;SDS011;55984;48.790;8.990;2023-05-10T12:07:15;4.30;;;1.90;;
68944;SDS011;55984;48.790;8.990;2023-05-10T12:09:43;2.43;;;1.60;;
68944;SDS011;55984;48.790;8.990;2023-05-10T12:12:10;6.10;;;1.90;;
68944;SDS011;55984;48.790;8.990;2023-05-10T12:14:36;5.70;;;1.90;;
68944;SDS011;55984;48.790;8.990;2023-05-10T12:17:02;5.93;;;2.07;;
68944;SDS011;55984;48.790;8.990;2023-05-10T12:19:28;6.30;;;1.80;;
68944;SDS011;55984;48.790;8.990;2023-05-10T12:21:54;6.67;;;1.73;;
68944;SDS011;55984;48.790;8.990;2023-05-10T12:24:20;4.50;;;2.20;;
68944;SDS011;55984;48.790;8.990;2023-05-10T12:26:49;3.47;;;1.70;;
68944;SDS011;55984;48.790;8.990;2023-05-10T12:29:16;5.00;;;1.80;;
68944;SDS011;55984;48.790;8.990;2023-05-10T12:31:52;2.53;;;1.70;;
68944;SDS011;55984;48.790;8.990;2023-05-10T12:34:25;7.20;;;2.43;;
68944;SDS011;55984;48.790;8.990;2023-05-10T12:37:03;6.60;;;1.90;;
68944;SDS011;55984;48.790;8.990;2023-05-10T12:39:43;2.93;;;1.77;;
68944;SDS011;55984;48.790;8.990;2023-05-10T12:42:11;3.93;;;2.00;;
68944;SDS011;55984;48.790;8.990;2023-05-10T12:44:38;6.60;;;2.30;;
68944;SDS011;55984;48.790;8.990;2023-05-10T12:47:04;4.17;;;1.97;;
68944;SDS011;55984;48.790;8.990;2023-05-10T12:49:30;4.63;;;1.87;;
68944;SDS011;55984;48.790;8.990;2023-05-10T12:51:57;4.20;;;2.00;;
68944;SDS011;55984;48.790;8.990;2023-05-10T12:54:23;3.50;;;1.83;;
68944;SDS011;55984;48.790;8.990;2023-05-10T12:56:51;8.50;;;1.90;;
68944;SDS011;55984;48.790;8.990;2023-05-10T12:59:17;2.83;;;1.87;;
68944;SDS011;55984;48.790;8.990;2023-05-10T13:01:44;3.60;;;2.00;;
68944;SDS011;55984;48.790;8.990;2023-05-10T13:04:09;7.83;;;2.10;;
68944;SDS011;55984;48.790;8.990;2023-05-10T13:06:35;4.07;;;2.20;;
68944;SDS011;55984;48.790;8.990;2023-05-10T13:09:01;8.00;;;2.10;;
68944;SDS011;55984;48.790;8.990;2023-05-10T13:11:30;3.50;;;1.70;;
68944;SDS011;55984;48.790;8.990;2023-05-10T13:13:56;4.10;;;1.80;;
68944;SDS011;55984;48.790;8.990;2023-05-10T13:16:22;3.73;;;1.80;;
68944;SDS011;55984;48.790;8.990;2023-05-10T13:18:50;4.27;;;1.90;;
68944;SDS011;55984;48.790;8.990;2023-05-10T13:21:17;5.90;;;1.90;;
68944;SDS011;55984;48.790;8.990;2023-05-10T13:23:44;4.50;;;1.60;;
68944;SDS011;55984;48.790;8.990;2023-05-10T13:26:11;3.90;;;1.77;;
68944;SDS011;55984;48.790;8.990;2023-05-10T13:28:37;4.00;;;1.87;;
68944;SDS011;55984;48.790;8.990;2023-05-10T13:31:03;7.40;;;1.90;;
68944;SDS011;55984;48.790;8.990;2023-05-10T13:33:30;3.13;;;1.73;;
68944;SDS011;55984;48.790;8.990;2023-05-10T13:35:56;3.03;;;1.70;;
68944;SDS011;55984;48.790;8.990;2023-05-10T13:38:22;4.90;;;1.73;;
68944;SDS011;55984;48.790;8.990;2023-05-10T13:40:48;2.60;;;1.60;;
68944;SDS011;55984;48.790;8.990;2023-05-10T13:43:18;5.43;;;1.80;;
68944;SDS011;55984;48.790;8.990;2023-05-10T13:45:44;10.97;;;1.97;;
68944;SDS011;55984;48.790;8.990;2023-05-10T13:48:10;3.60;;;1.90;;
68944;SDS011;55984;48.790;8.990;2023-05-10T13:50:37;3.40;;;2.33;;
68944;SDS011;55984;48.790;8.990;2023-05-10T13:53:03;4.30;;;1.93;;
68944;SDS011;55984;48.790;8.990;2023-05-10T13:55:30;4.50;;;2.20;;
68944;SDS011;55984;48.790;8.990;2023-05-10T13:57:56;3.13;;;1.80;;
68944;SDS011;55984;48.790;8.990;2023-05-10T14:00:22;3.70;;;1.83;;
68944;SDS011;55984;48.790;8.990;2023-05-10T14:02:50;3.97;;;1.67;;
68944;SDS011;55984;48.790;8.990;2023-05-10T14:05:21;3.50;;;1.70;;
68944;SDS011;55984;48.790;8.990;2023-05-10T14:07:49;3.60;;;1.70;;
68944;SDS011;55984;48.790;8.990;2023-05-10T14:10:23;2.40;;;1.70;;
68944;SDS011;55984;48.790;8.990;2023-05-10T14:12:51;2.90;;;2.00;;
68944;SDS011;55984;48.790;8.990;2023-05-10T14:15:23;4.73;;;1.80;;
68944;SDS011;55984;48.790;8.990;2023-05-10T14:17:52;4.00;;;1.90;;
68944;SDS011;55984;48.790;8.990;2023-05-10T14:20:18;7.90;;;2.07;;
68944;SDS011;55984;48.790;8.990;2023-05-10T14:22:44;4.77;;;1.83;;
68944;SDS011;55984;48.790;8.990;2023-05-10T14:25:10;5.43;;;2.50;;
68944;SDS011;55984;48.790;8.990;2023-05-10T14:27:37;4.13;;;2.00;;
68944;SDS011;55984;48.790;8.990;2023-05-10T14:30:03;3.80;;;1.60;;
68944;SDS011;55984;48.790;8.990;2023-05-10T14:32:30;4.67;;;1.80;;
68944;SDS011;55984;48.790;8.990;2023-05-10T14:35:00;3.67;;;2.00;;
68944;SDS011;55984;48.790;8.990;2023-05-10T14:37:26;4.13;;;1.93;;
68944;SDS011;55984;48.790;8.990;2023-05-10T14:39:53;4.10;;;2.30;;
68944;SDS011;55984;48.790;8.990;2023-05-10T14:42:19;3.77;;;1.80;;
68944;SDS011;55984;48.790;8.990;2023-05-10T14:44:45;4.50;;;1.90;;
68944;SDS011;55984;48.790;8.990;2023-05-10T14:47:18;3.00;;;1.70;;
68944;SDS011;55984;48.790;8.990;2023-05-10T14:49:44;4.40;;;2.07;;
68944;SDS011;55984;48.790;8.990;2023-05-10T14:52:10;3.53;;;1.80;;
68944;SDS011;55984;48.790;8.990;2023-05-10T14:54:37;3.90;;;1.90;;
68944;SDS011;55984;48.790;8.990;2023-05-10T14:57:03;4.73;;;2.00;;
68944;SDS011;55984;48.790;8.990;2023-05-10T14:59:30;2.70;;;1.60;;
68944;SDS011;55984;48.790;8.990;2023-05-10T15:01:57;3.50;;;1.63;;
68944;SDS011;55984;48.790;8.990;2023-05-10T15:04:29;3.17;;;1.60;;
68944;SDS011;55984;48.790;8.990;2023-05-10T15:06:56;8.43;;;1.70;;
68944;SDS011;55984;48.790;8.990;2023-05-10T15:09:24;3.10;;;1.60;;
68944;SDS011;55984;48.790;8.990;2023-05-10T15:11:50;2.70;;;1.60;;
68944;SDS011;55984;48.790;8.990;2023-05-10T15:14:17;3.53;;;1.60;;
68944;SDS011;55984;48.790;8.990;2023-05-10T15:16:44;6.63;;;1.90;;
68944;SDS011;55984;48.790;8.990;2023-05-10T15:19:11;3.70;;;1.70;;
68944;SDS011;55984;48.790;8.990;2023-05-10T15:21:37;3.63;;;1.90;;
68944;SDS011;55984;48.790;8.990;2023-05-10T15:24:07;2.93;;;1.60;;
68944;SDS011;55984;48.790;8.990;2023-05-10T15:26:33;4.77;;;1.70;;
68944;SDS011;55984;48.790;8.990;2023-05-10T15:29:00;4.20;;;1.70;;
68944;SDS011;55984;48.790;8.990;2023-05-10T15:31:26;2.50;;;1.60;;
68944;SDS011;55984;48.790;8.990;2023-05-10T15:33:57;3.53;;;1.67;;
68944;SDS011;55984;48.790;8.990;2023-05-10T15:36:26;3.00;;;1.90;;
68944;SDS011;55984;48.790;8.990;2023-05-10T15:38:54;2.97;;;1.80;;